Time;durP1;ratioP1;P1;durP2;ratioP2;P2;SDS_P1;SDS_P2;PMS_P1;PMS_P2;Temp;Humidity;BMP_temperature;BMP_pressure;BME280_temperature;BME280_humidity;BME280_pressure;Samples;Min_cycle;Max_cycle;Signal;HPM_P1;HPM_P2
2022/02/28 00:01:38;;;;;;;23.48;12.80;;;0.70;99.90;;;;;;4958835;28;20271;-86
2022/02/28 00:04:05;;;;;;;18.77;11.68;;;0.60;99.90;;;;;;4962910;29;20227;-85
2022/02/28 00:06:32;;;;;;;23.23;13.02;;;0.60;99.90;;;;;;4963011;28;20187;-85
2022/02/28 00:09:00;;;;;;;20.90;13.05;;;0.60;99.90;;;;;;4963152;28;20203;-84
2022/02/28 00:11:26;;;;;;;19.13;11.40;;;0.60;99.90;;;;;;4963124;28;20199;-84
2022/02/28 00:13:53;;;;;;;22.65;14.02;;;0.50;99.90;;;;;;4962267;28;20211;-84
2022/02/28 00:16:20;;;;;;;25.60;14.65;;;0.20;99.90;;;;;;4956616;29;20348;-85
2022/02/28 00:18:46;;;;;;;24.27;14.45;;;0.70;99.90;;;;;;4952440;29;20238;-86
2022/02/28 00:21:13;;;;;;;26.00;14.23;;;0.70;99.90;;;;;;4953371;29;20218;-86
2022/02/28 00:23:40;;;;;;;23.95;12.82;;;0.80;99.90;;;;;;4953577;29;20309;-85
2022/02/28 00:26:08;;;;;;;24.77;13.57;;;0.90;99.90;;;;;;4951267;29;20207;-85
2022/02/28 00:28:34;;;;;;;20.17;13.15;;;0.90;99.90;;;;;;4951355;29;20207;-86
2022/02/28 00:31:01;;;;;;;23.60;14.23;;;0.70;99.90;;;;;;4952043;29;20207;-83
2022/02/28 00:33:27;;;;;;;23.42;12.35;;;0.50;99.90;;;;;;4952205;29;20241;-86
2022/02/28 00:35:54;;;;;;;26.25;14.27;;;0.60;99.90;;;;;;4951872;29;20203;-86
2022/02/28 00:38:21;;;;;;;30.73;14.10;;;-0.80;99.90;;;;;;4951586;29;20238;-85
2022/02/28 00:40:47;;;;;;;20.55;12.55;;;0.60;99.90;;;;;;4951767;29;20209;-85
2022/02/28 00:43:15;;;;;;;27.92;14.13;;;0.70;99.90;;;;;;4952180;29;20227;-85
2022/02/28 00:45:43;;;;;;;28.35;12.98;;;0.70;99.90;;;;;;4951433;29;20227;-86
2022/02/28 00:48:11;;;;;;;26.30;13.23;;;0.60;99.90;;;;;;4955390;29;20242;-85
2022/02/28 00:50:38;;;;;;;22.80;13.77;;;0.80;99.90;;;;;;4960380;29;20195;-86
2022/02/28 00:53:05;;;;;;;30.50;15.05;;;0.70;99.90;;;;;;4959199;29;20235;-86
2022/02/28 00:55:32;;;;;;;29.85;14.30;;;0.80;99.90;;;;;;4959591;29;20235;-85
2022/02/28 00:57:58;;;;;;;43.75;23.17;;;0.50;99.90;;;;;;4959769;29;20206;-85
2022/02/28 01:00:26;;;;;;;37.30;19.05;;;0.60;99.90;;;;;;4954801;29;20222;-85
2022/02/28 01:02:53;;;;;;;35.17;15.95;;;0.90;99.90;;;;;;4952509;29;20223;-86
2022/02/28 01:05:21;;;;;;;29.13;14.70;;;0.70;99.90;;;;;;4952820;29;20214;-85
2022/02/28 01:07:49;;;;;;;32.08;16.75;;;0.70;99.90;;;;;;4949755;29;20211;-84
2022/02/28 01:10:17;;;;;;;25.02;13.60;;;0.80;99.90;;;;;;4949788;29;20570;-85
2022/02/28 01:12:44;;;;;;;26.98;14.18;;;0.80;99.90;;;;;;4948733;29;20247;-84
2022/02/28 01:15:12;;;;;;;29.40;14.48;;;0.90;99.90;;;;;;4951179;29;20299;-84
2022/02/28 01:17:40;;;;;;;26.92;14.50;;;0.70;99.90;;;;;;4949122;29;20207;-84
2022/02/28 01:20:08;;;;;;;26.80;15.10;;;0.90;99.90;;;;;;4952047;29;20211;-86
2022/02/28 01:22:35;;;;;;;25.85;14.48;;;0.90;99.90;;;;;;4959071;29;20258;-85
2022/02/28 01:25:02;;;;;;;25.35;14.98;;;1.00;99.90;;;;;;4955824;29;20279;-85
2022/02/28 01:27:29;;;;;;;24.48;14.73;;;0.80;99.90;;;;;;4953657;29;20215;-86
2022/02/28 01:29:56;;;;;;;28.95;14.85;;;0.60;99.90;;;;;;4952622;29;20274;-85
2022/02/28 01:32:22;;;;;;;29.88;15.52;;;0.70;99.90;;;;;;4952070;29;20272;-86
2022/02/28 01:34:50;;;;;;;31.13;16.00;;;0.70;99.90;;;;;;4951782;29;20274;-85
2022/02/28 01:37:17;;;;;;;31.27;14.73;;;0.80;99.90;;;;;;4953370;29;20258;-85
2022/02/28 01:39:46;;;;;;;28.80;14.95;;;0.90;99.90;;;;;;4952762;29;20254;-85
2022/02/28 01:42:13;;;;;;;32.35;17.05;;;0.90;99.90;;;;;;4953713;29;20261;-86
2022/02/28 01:44:39;;;;;;;29.67;15.38;;;0.90;99.90;;;;;;4961586;28;20215;-83
2022/02/28 01:47:06;;;;;;;27.45;15.30;;;0.80;99.90;;;;;;4961838;28;20190;-83
2022/02/28 01:49:33;;;;;;;33.95;17.70;;;0.90;99.90;;;;;;4961819;28;20203;-84
2022/02/28 01:52:01;;;;;;;28.30;14.85;;;0.90;99.90;;;;;;4958863;29;20251;-84
2022/02/28 01:54:28;;;;;;;30.80;15.50;;;1.00;99.90;;;;;;4949620;29;20191;-85
2022/02/28 01:56:55;;;;;;;27.30;15.23;;;0.90;99.90;;;;;;4949735;29;20211;-85
2022/02/28 01:59:22;;;;;;;27.35;15.90;;;0.90;99.90;;;;;;4949900;29;20671;-85
2022/02/28 02:01:48;;;;;;;29.20;14.60;;;0.70;99.90;;;;;;4951000;29;20203;-86
2022/02/28 02:04:15;;;;;;;26.42;14.52;;;1.00;99.90;;;;;;4953113;29;20259;-85
2022/02/28 02:06:42;;;;;;;27.67;15.77;;;0.90;99.90;;;;;;4952234;29;20211;-85
2022/02/28 02:09:11;;;;;;;27.60;14.55;;;0.90;99.90;;;;;;4952198;29;20242;-86
2022/02/28 02:11:40;;;;;;;36.22;15.60;;;1.20;99.90;;;;;;4952171;29;20214;-86
2022/02/28 02:14:08;;;;;;;33.28;16.90;;;0.90;99.90;;;;;;4951976;29;20210;-86
2022/02/28 02:16:35;;;;;;;28.05;16.10;;;0.90;99.90;;;;;;4950843;29;20749;-85
2022/02/28 02:19:01;;;;;;;28.42;14.88;;;0.90;99.90;;;;;;4952914;29;20210;-85
2022/02/28 02:21:30;;;;;;;28.13;14.68;;;1.00;99.90;;;;;;4955532;29;20211;-85
2022/02/28 02:23:57;;;;;;;30.35;16.58;;;0.90;99.90;;;;;;4958269;29;20306;-83
2022/02/28 02:26:24;;;;;;;35.92;14.93;;;0.80;99.90;;;;;;4956798;29;20203;-85
2022/02/28 02:28:51;;;;;;;25.83;15.55;;;0.80;99.90;;;;;;4954865;29;20211;-85
2022/02/28 02:31:17;;;;;;;26.17;14.20;;;0.90;99.90;;;;;;4958085;29;20242;-85
2022/02/28 02:33:44;;;;;;;29.00;14.60;;;0.80;99.90;;;;;;4956808;29;20254;-84
2022/02/28 02:36:12;;;;;;;28.25;14.70;;;0.90;99.90;;;;;;4957223;29;20211;-84
2022/02/28 02:38:40;;;;;;;25.13;14.32;;;0.90;99.90;;;;;;4956823;29;20231;-84
2022/02/28 02:41:08;;;;;;;25.02;14.75;;;0.80;99.90;;;;;;4954633;29;20678;-85
2022/02/28 02:43:35;;;;;;;23.23;12.50;;;0.80;99.90;;;;;;4953523;29;20265;-85
2022/02/28 02:46:02;;;;;;;27.65;14.40;;;0.90;99.90;;;;;;4952291;29;20238;-85
2022/02/28 02:48:29;;;;;;;25.48;13.40;;;0.90;99.90;;;;;;4952798;29;20207;-85
2022/02/28 02:50:56;;;;;;;26.23;14.70;;;0.90;99.90;;;;;;4951961;29;20247;-86
2022/02/28 02:53:23;;;;;;;24.77;13.88;;;0.90;99.90;;;;;;4952433;28;20261;-84
2022/02/28 02:55:51;;;;;;;26.98;13.18;;;0.80;99.90;;;;;;4943160;29;20211;-84
2022/02/28 02:58:18;;;;;;;30.90;14.77;;;0.60;99.90;;;;;;4945168;29;20211;-84
2022/02/28 03:00:47;;;;;;;29.77;14.77;;;0.90;99.90;;;;;;4947435;29;20211;-84
2022/02/28 03:03:17;;;;;;;36.22;14.55;;;0.90;99.90;;;;;;4946606;29;20227;-84
2022/02/28 03:05:44;;;;;;;28.10;13.77;;;0.80;99.90;;;;;;4952106;29;20214;-84
2022/02/28 03:08:10;;;;;;;26.65;13.68;;;1.20;99.90;;;;;;4954115;29;20203;-84
2022/02/28 03:10:37;;;;;;;30.52;16.00;;;0.70;99.90;;;;;;4952734;29;20223;-86
2022/02/28 03:13:05;;;;;;;34.05;15.43;;;1.00;99.90;;;;;;4955141;29;20227;-86
2022/02/28 03:15:32;;;;;;;28.10;13.52;;;0.60;99.90;;;;;;4953192;29;20213;-85
2022/02/28 03:17:58;;;;;;;26.60;13.82;;;0.90;99.90;;;;;;4951093;29;20203;-85
2022/02/28 03:20:25;;;;;;;32.30;14.40;;;0.80;99.90;;;;;;4951944;29;20265;-85
2022/02/28 03:22:52;;;;;;;31.15;15.02;;;0.90;99.90;;;;;;4951339;29;20223;-85
2022/02/28 03:25:19;;;;;;;37.10;16.00;;;0.80;99.90;;;;;;4951870;29;20234;-85
2022/02/28 03:27:45;;;;;;;33.33;16.63;;;0.60;99.90;;;;;;4952147;29;20238;-86
2022/02/28 03:30:14;;;;;;;32.90;16.80;;;0.70;99.90;;;;;;4950970;29;20808;-85
2022/02/28 03:32:40;;;;;;;28.50;15.15;;;0.70;99.90;;;;;;4950767;29;20223;-86
2022/02/28 03:35:11;;;;;;;33.22;16.40;;;0.70;99.90;;;;;;4952554;29;20562;-85
2022/02/28 03:37:38;;;;;;;29.55;14.95;;;0.70;99.90;;;;;;4952420;29;20199;-86
2022/02/28 03:40:07;;;;;;;27.65;15.48;;;0.70;99.90;;;;;;4951540;29;20215;-85
2022/02/28 03:42:34;;;;;;;33.70;17.20;;;0.60;99.90;;;;;;4951744;29;20237;-86
2022/02/28 03:45:00;;;;;;;36.35;17.95;;;0.70;99.90;;;;;;4952180;29;20207;-84
2022/02/28 03:47:28;;;;;;;37.95;16.15;;;0.80;99.90;;;;;;4951571;29;20203;-84
2022/02/28 03:49:55;;;;;;;37.60;16.10;;;0.80;99.90;;;;;;4950964;29;20234;-85
2022/02/28 03:52:22;;;;;;;32.90;15.98;;;1.80;99.90;;;;;;4950584;29;20330;-85
2022/02/28 03:54:48;;;;;;;34.50;17.85;;;0.30;99.90;;;;;;4952175;29;20223;-85
2022/02/28 03:57:16;;;;;;;31.90;17.00;;;0.60;99.90;;;;;;4951390;29;20219;-84
2022/02/28 03:59:43;;;;;;;35.72;18.65;;;0.70;99.90;;;;;;4951603;29;20223;-84
2022/02/28 04:02:10;;;;;;;32.15;17.45;;;0.50;99.90;;;;;;4951543;29;20227;-84
2022/02/28 04:04:39;;;;;;;38.38;17.90;;;0.40;99.90;;;;;;4950299;29;20274;-85
2022/02/28 04:07:07;;;;;;;31.55;15.25;;;0.60;99.90;;;;;;4951033;29;20199;-86
2022/02/28 04:09:34;;;;;;;35.65;18.02;;;0.60;99.90;;;;;;4951491;29;20262;-85
2022/02/28 04:12:01;;;;;;;32.50;17.25;;;0.50;99.90;;;;;;4952220;29;20227;-85
2022/02/28 04:14:28;;;;;;;36.40;17.58;;;0.70;99.90;;;;;;4955479;29;20207;-85
2022/02/28 04:16:55;;;;;;;34.03;17.58;;;0.70;99.90;;;;;;4958697;29;20338;-84
2022/02/28 04:19:22;;;;;;;37.67;18.67;;;0.50;99.90;;;;;;4958307;29;20214;-84
2022/02/28 04:21:50;;;;;;;37.88;17.60;;;0.80;99.90;;;;;;4958205;29;20191;-85
2022/02/28 04:24:18;;;;;;;32.60;16.60;;;0.50;99.90;;;;;;4957796;29;20223;-84
2022/02/28 04:26:45;;;;;;;32.40;17.08;;;0.60;99.90;;;;;;4959034;29;20242;-85
2022/02/28 04:29:13;;;;;;;33.35;16.80;;;0.80;99.90;;;;;;4959981;29;20225;-85
2022/02/28 04:31:40;;;;;;;33.83;17.30;;;0.50;99.90;;;;;;4955450;29;20221;-85
2022/02/28 04:34:07;;;;;;;37.78;16.63;;;0.50;99.90;;;;;;4958683;29;20235;-85
2022/02/28 04:36:34;;;;;;;32.58;17.35;;;;;;;;;;4957982;29;20203;-84
2022/02/28 04:39:03;;;;;;;41.78;17.60;;;0.60;99.90;;;;;;4957811;29;20207;-84
2022/02/28 04:41:30;;;;;;;34.28;17.25;;;;;;;;;;4958614;29;20213;-84
2022/02/28 04:43:59;;;;;;;36.17;18.15;;;0.60;99.90;;;;;;4959913;29;20227;-84
2022/02/28 04:46:26;;;;;;;30.42;16.15;;;0.40;99.90;;;;;;4960871;29;20243;-85
2022/02/28 04:48:53;;;;;;;37.75;16.08;;;0.60;99.90;;;;;;4960894;29;20210;-85
2022/02/28 04:51:20;;;;;;;30.98;17.13;;;0.60;99.90;;;;;;4961872;28;20199;-86
2022/02/28 04:53:46;;;;;;;31.75;15.15;;;0.60;99.90;;;;;;4983909;23;20225;-86
2022/02/28 04:56:14;;;;;;;34.55;17.02;;;0.80;99.90;;;;;;4963091;28;20211;-86
2022/02/28 04:58:41;;;;;;;33.05;18.45;;;0.60;99.90;;;;;;4962702;28;20444;-86
2022/02/28 05:01:09;;;;;;;31.73;18.30;;;0.70;99.90;;;;;;4962897;28;20187;-88
2022/02/28 05:03:35;;;;;;;34.20;17.35;;;0.60;99.90;;;;;;4962647;28;20267;-88
2022/02/28 05:06:02;;;;;;;32.83;16.08;;;0.50;99.90;;;;;;4957925;28;20211;-88
2022/02/28 05:08:29;;;;;;;31.58;18.17;;;0.60;99.90;;;;;;4955071;29;20207;-88
2022/02/28 05:10:55;;;;;;;36.85;18.10;;;0.60;99.90;;;;;;4949342;29;20211;-88
2022/02/28 05:13:23;;;;;;;29.08;16.20;;;0.60;99.90;;;;;;4961616;28;20215;-88
2022/02/28 05:15:50;;;;;;;33.28;17.70;;;0.60;99.90;;;;;;4962798;28;20187;-87
2022/02/28 05:18:17;;;;;;;35.10;17.67;;;0.60;99.90;;;;;;4962694;28;20187;-88
2022/02/28 05:20:44;;;;;;;38.00;17.52;;;0.60;99.90;;;;;;4962749;28;20203;-88
2022/02/28 05:23:11;;;;;;;32.83;16.38;;;0.70;99.90;;;;;;4961997;28;20251;-88
2022/02/28 05:25:38;;;;;;;31.95;17.30;;;0.70;99.90;;;;;;4960539;28;20203;-88
2022/02/28 05:28:05;;;;;;;35.42;17.00;;;0.60;99.90;;;;;;4960590;29;20215;-88
2022/02/28 05:30:33;;;;;;;31.85;16.38;;;0.50;99.90;;;;;;4958850;29;20206;-88
2022/02/28 05:32:59;;;;;;;34.25;17.52;;;0.70;99.90;;;;;;4957139;29;20282;-88
2022/02/28 05:35:26;;;;;;;34.35;17.42;;;0.70;99.90;;;;;;4956253;29;20255;-89
2022/02/28 05:37:54;;;;;;;37.50;19.05;;;0.70;99.90;;;;;;4954862;29;20473;-88
2022/02/28 05:40:21;;;;;;;39.80;19.48;;;0.80;99.90;;;;;;4954575;29;20203;-88
2022/02/28 05:42:47;;;;;;;34.40;20.75;;;0.80;99.90;;;;;;4955550;29;20250;-88
2022/02/28 05:45:14;;;;;;;36.25;18.80;;;0.70;99.90;;;;;;4956073;29;20199;-88
2022/02/28 05:47:42;;;;;;;31.60;18.25;;;0.70;99.90;;;;;;4953649;29;20207;-88
2022/02/28 05:50:10;;;;;;;38.85;18.60;;;0.80;99.90;;;;;;4951480;29;20207;-88
2022/02/28 05:52:37;;;;;;;36.22;19.00;;;0.80;99.90;;;;;;4952845;29;20453;-88
2022/02/28 05:55:04;;;;;;;34.70;17.98;;;0.90;99.90;;;;;;4951578;29;20243;-88
2022/02/28 05:57:35;;;;;;;33.65;18.00;;;0.90;99.90;;;;;;4950845;29;20209;-88
2022/02/28 06:00:04;;;;;;;36.17;18.35;;;0.90;99.90;;;;;;4952987;29;20233;-88
2022/02/28 06:02:32;;;;;;;37.20;20.25;;;0.60;99.90;;;;;;4952933;29;20249;-88
2022/02/28 06:05:00;;;;;;;29.70;16.55;;;0.60;99.90;;;;;;4949869;29;20203;-88
2022/02/28 06:07:27;;;;;;;36.72;18.65;;;0.70;99.90;;;;;;4952270;29;20281;-88
2022/02/28 06:09:53;;;;;;;35.63;18.38;;;0.70;99.90;;;;;;4948122;29;20262;-88
2022/02/28 06:12:20;;;;;;;39.85;18.67;;;0.70;99.90;;;;;;4946075;29;20227;-88
2022/02/28 06:14:47;;;;;;;35.25;18.13;;;0.70;99.90;;;;;;4943915;29;20355;-88
2022/02/28 06:17:13;;;;;;;39.20;20.88;;;0.70;99.90;;;;;;4942830;29;20206;-88
2022/02/28 06:19:40;;;;;;;46.38;19.83;;;0.80;99.90;;;;;;4944315;29;20242;-88
2022/02/28 06:22:08;;;;;;;36.13;19.02;;;1.10;99.90;;;;;;4941816;29;20207;-88
2022/02/28 06:24:35;;;;;;;36.47;18.73;;;0.90;99.90;;;;;;4941436;29;20211;-88
2022/02/28 06:27:01;;;;;;;35.38;18.13;;;0.90;99.90;;;;;;4941143;29;20211;-89
2022/02/28 06:29:28;;;;;;;36.40;17.88;;;0.90;99.90;;;;;;4940461;29;20678;-89
2022/02/28 06:31:55;;;;;;;38.35;20.50;;;1.10;99.90;;;;;;4942442;29;20211;-89
2022/02/28 06:34:22;;;;;;;35.40;19.35;;;0.80;99.90;;;;;;4942921;29;20230;-89
2022/02/28 06:36:48;;;;;;;38.45;18.63;;;0.90;99.90;;;;;;4941674;29;20215;-89
2022/02/28 06:39:16;;;;;;;36.80;18.05;;;0.80;99.90;;;;;;4941085;29;20207;-89
2022/02/28 06:41:43;;;;;;;29.60;17.95;;;0.80;99.90;;;;;;4954000;29;20555;-88
2022/02/28 06:44:10;;;;;;;39.17;17.67;;;0.80;99.90;;;;;;4959713;28;20239;-88
2022/02/28 06:46:37;;;;;;;36.03;17.67;;;1.00;99.90;;;;;;4947510;29;20240;-88
2022/02/28 06:49:03;;;;;;;30.90;18.40;;;0.90;99.90;;;;;;4949299;28;20218;-88
2022/02/28 06:51:30;;;;;;;34.22;18.95;;;1.10;99.90;;;;;;4960501;28;20250;-87
2022/02/28 06:53:57;;;;;;;38.03;18.35;;;1.10;99.90;;;;;;4960311;28;20222;-88
2022/02/28 06:56:25;;;;;;;31.55;19.00;;;0.80;99.90;;;;;;4955852;28;20247;-89
2022/02/28 06:58:51;;;;;;;40.47;19.13;;;1.10;99.90;;;;;;4949945;29;20215;-89
2022/02/28 07:01:18;;;;;;;37.92;18.80;;;1.00;99.90;;;;;;4960718;28;20207;-89
2022/02/28 07:03:45;;;;;;;36.72;19.08;;;1.10;99.90;;;;;;4960838;28;20231;-87
2022/02/28 07:06:13;;;;;;;36.35;19.17;;;1.00;99.90;;;;;;4960764;28;20234;-88
2022/02/28 07:08:40;;;;;;;37.42;18.33;;;1.10;99.90;;;;;;4960534;28;20219;-87
2022/02/28 07:11:08;;;;;;;44.35;19.30;;;1.10;99.90;;;;;;4960753;28;20212;-88
2022/02/28 07:13:36;;;;;;;32.95;18.65;;;1.00;99.90;;;;;;4960092;28;20238;-86
2022/02/28 07:16:03;;;;;;;28.35;17.00;;;1.10;99.90;;;;;;4955651;29;20773;-87
2022/02/28 07:18:29;;;;;;;34.25;18.05;;;1.00;99.90;;;;;;4953254;29;20273;-87
2022/02/28 07:20:57;;;;;;;35.03;17.88;;;1.10;99.90;;;;;;4943363;29;20286;-87
2022/02/28 07:23:23;;;;;;;37.45;20.60;;;1.00;99.90;;;;;;4940696;29;20235;-87
2022/02/28 07:25:50;;;;;;;40.67;20.40;;;1.10;99.90;;;;;;4940426;29;20625;-87
2022/02/28 07:28:17;;;;;;;31.77;18.48;;;1.00;99.90;;;;;;4942940;29;20607;-87
2022/02/28 07:30:45;;;;;;;32.85;18.45;;;1.00;99.90;;;;;;4939770;29;20230;-87
2022/02/28 07:33:11;;;;;;;33.40;17.88;;;0.90;99.90;;;;;;4940288;29;20579;-87
2022/02/28 07:35:38;;;;;;;32.28;17.55;;;1.00;99.90;;;;;;4939742;29;20226;-86
2022/02/28 07:38:05;;;;;;;37.13;17.40;;;1.00;99.90;;;;;;4939182;29;20203;-87
2022/02/28 07:40:31;;;;;;;33.53;17.80;;;0.90;99.90;;;;;;4940032;29;20262;-86
2022/02/28 07:42:58;;;;;;;35.40;19.30;;;0.90;99.90;;;;;;4939685;29;20274;-86
2022/02/28 07:45:25;;;;;;;28.60;16.98;;;1.80;99.90;;;;;;4941388;29;20302;-87
2022/02/28 07:47:53;;;;;;;34.53;17.23;;;1.00;99.90;;;;;;4943663;29;20210;-87
2022/02/28 07:50:20;;;;;;;36.78;19.75;;;1.00;99.90;;;;;;4939964;29;20203;-87
2022/02/28 07:52:47;;;;;;;30.42;17.40;;;1.10;99.90;;;;;;4943857;29;20302;-87
2022/02/28 07:55:14;;;;;;;32.50;17.02;;;1.00;99.90;;;;;;4942700;29;20231;-87
2022/02/28 07:57:41;;;;;;;37.05;18.85;;;0.90;99.90;;;;;;4941214;29;20220;-87
2022/02/28 08:00:12;;;;;;;31.20;18.10;;;1.00;99.90;;;;;;4942245;29;20210;-86
2022/02/28 08:02:38;;;;;;;28.55;16.08;;;1.10;99.90;;;;;;4947183;29;20234;-88
2022/02/28 08:05:08;;;;;;;28.15;16.98;;;1.10;99.90;;;;;;4945963;29;20265;-86
2022/02/28 08:07:39;;;;;;;25.60;15.52;;;1.20;99.90;;;;;;4946217;29;20259;-87
2022/02/28 08:10:07;;;;;;;27.58;14.88;;;1.10;99.90;;;;;;4954349;29;20206;-87
2022/02/28 08:12:33;;;;;;;31.65;15.88;;;1.20;99.90;;;;;;4959939;29;20231;-87
2022/02/28 08:15:00;;;;;;;28.55;15.55;;;1.20;99.90;;;;;;4951544;29;20755;-88
2022/02/28 08:17:26;;;;;;;27.25;14.95;;;1.20;99.90;;;;;;4949016;29;20203;-87
2022/02/28 08:19:53;;;;;;;26.73;13.88;;;1.20;99.90;;;;;;4947452;29;20207;-87
2022/02/28 08:22:22;;;;;;;33.75;16.25;;;1.20;99.90;;;;;;4947695;29;20251;-88
2022/02/28 08:24:48;;;;;;;30.23;15.52;;;1.10;99.90;;;;;;4947642;29;20204;-88
2022/02/28 08:27:15;;;;;;;32.38;15.50;;;1.00;99.90;;;;;;4948488;29;20214;-85
2022/02/28 08:29:44;;;;;;;33.90;15.90;;;1.10;99.90;;;;;;4948066;29;20211;-88
2022/02/28 08:32:11;;;;;;;31.27;15.70;;;1.10;99.90;;;;;;4947761;29;20250;-86
2022/02/28 08:34:37;;;;;;;28.58;16.00;;;1.10;99.90;;;;;;4947122;29;20230;-88
2022/02/28 08:37:04;;;;;;;30.95;14.80;;;1.20;99.90;;;;;;4948666;29;20234;-88
2022/02/28 08:39:33;;;;;;;21.27;12.60;;;1.20;99.90;;;;;;4948104;29;20215;-87
2022/02/28 08:42:00;;;;;;;25.95;15.57;;;1.10;99.90;;;;;;4955253;28;20207;-87
2022/02/28 08:44:27;;;;;;;29.23;15.15;;;1.10;99.90;;;;;;4963453;28;20211;-86
2022/02/28 08:46:54;;;;;;;26.35;15.68;;;1.10;99.90;;;;;;4963418;28;20203;-87
2022/02/28 08:49:20;;;;;;;24.73;14.30;;;0.70;99.90;;;;;;4963010;28;20187;-86
2022/02/28 08:51:47;;;;;;;24.00;14.25;;;1.00;99.90;;;;;;4963403;28;20187;-86
2022/02/28 08:54:14;;;;;;;34.10;17.40;;;0.90;99.90;;;;;;4962797;28;20211;-87
2022/02/28 08:56:42;;;;;;;26.98;15.68;;;1.00;99.90;;;;;;4962756;29;20195;-86
2022/02/28 08:59:10;;;;;;;26.35;14.82;;;1.10;99.90;;;;;;4954605;29;20218;-87
2022/02/28 09:01:39;;;;;;;29.45;15.55;;;1.20;99.90;;;;;;4951127;29;20215;-88
2022/02/28 09:04:06;;;;;;;29.63;15.15;;;2.10;99.90;;;;;;4949184;29;20233;-86
2022/02/28 09:06:33;;;;;;;25.92;15.52;;;1.50;99.90;;;;;;4945746;29;20209;-87
2022/02/28 09:08:59;;;;;;;28.05;14.88;;;1.30;99.90;;;;;;4946597;29;20213;-86
2022/02/28 09:11:27;;;;;;;27.98;16.42;;;1.20;99.90;;;;;;4945081;29;20287;-86
2022/02/28 09:13:55;;;;;;;23.42;15.90;;;1.30;99.90;;;;;;4944779;29;20234;-87
2022/02/28 09:16:22;;;;;;;27.42;16.02;;;1.50;99.90;;;;;;4948217;29;20246;-87
2022/02/28 09:18:49;;;;;;;34.55;19.98;;;1.40;99.90;;;;;;4947531;29;20262;-87
2022/02/28 09:21:16;;;;;;;34.05;16.95;;;1.50;99.90;;;;;;4948647;29;20203;-88
2022/02/28 09:23:43;;;;;;;30.80;16.77;;;1.70;99.90;;;;;;4945418;29;20285;-87
2022/02/28 09:26:09;;;;;;;36.80;20.67;;;1.80;99.90;;;;;;4942808;29;20203;-87
2022/02/28 09:28:36;;;;;;;29.38;15.65;;;1.80;99.90;;;;;;4945902;29;20211;-87
2022/02/28 09:31:04;;;;;;;25.65;15.90;;;2.00;99.90;;;;;;4945272;29;20214;-87
2022/02/28 09:33:31;;;;;;;22.60;14.35;;;2.10;99.90;;;;;;4946088;29;20227;-89
2022/02/28 09:35:58;;;;;;;26.15;16.15;;;1.90;99.90;;;;;;4945775;29;20227;-87
2022/02/28 09:38:25;;;;;;;29.30;15.63;;;1.70;99.90;;;;;;4952576;29;20222;-87
2022/02/28 09:40:54;;;;;;;28.55;16.73;;;1.70;99.90;;;;;;4956200;29;20199;-87
2022/02/28 09:43:20;;;;;;;26.85;15.63;;;1.90;99.90;;;;;;4949364;29;20223;-87
2022/02/28 09:45:47;;;;;;;32.65;20.00;;;2.00;99.90;;;;;;4943943;29;20725;-87
2022/02/28 09:48:17;;;;;;;29.00;17.25;;;2.00;99.90;;;;;;4945488;29;20210;-87
2022/02/28 09:50:43;;;;;;;32.72;17.73;;;1.80;99.90;;;;;;4943555;29;20222;-87
2022/02/28 09:53:10;;;;;;;31.48;18.90;;;1.70;99.90;;;;;;4943556;29;20245;-86
2022/02/28 09:55:37;;;;;;;31.98;16.45;;;1.70;99.90;;;;;;4946484;29;20254;-87
2022/02/28 09:58:04;;;;;;;31.25;18.60;;;1.70;99.90;;;;;;4945716;29;20211;-88
2022/02/28 10:00:31;;;;;;;33.75;19.08;;;1.70;99.90;;;;;;4951057;29;20270;-87
2022/02/28 10:03:02;;;;;;;31.15;17.92;;;1.80;99.90;;;;;;4950343;29;20226;-88
2022/02/28 10:05:30;;;;;;;31.85;16.98;;;1.80;99.90;;;;;;4945395;29;20651;-87
2022/02/28 10:08:00;;;;;;;36.63;17.45;;;1.80;99.90;;;;;;4945275;29;20211;-87
2022/02/28 10:10:28;;;;;;;27.85;17.48;;;1.90;99.90;;;;;;4947075;29;20271;-88
2022/02/28 10:12:55;;;;;;;29.10;17.40;;;1.90;99.90;;;;;;4942944;29;20231;-87
2022/02/28 10:15:24;;;;;;;32.03;16.00;;;2.10;99.90;;;;;;4951538;29;20223;-87
2022/02/28 10:17:54;;;;;;;28.17;15.70;;;2.30;99.90;;;;;;4959520;29;20191;-86
2022/02/28 10:20:23;;;;;;;29.48;16.15;;;2.30;99.90;;;;;;4952307;29;20699;-87
2022/02/28 10:22:57;;;;;;;31.98;15.30;;;2.70;99.90;;;;;;4949833;29;20231;-87
2022/02/28 10:25:38;;;;;;;28.08;14.88;;;2.50;99.90;;;;;;4958902;28;20199;-88
2022/02/28 10:28:13;;;;;;;24.40;14.30;;;2.40;99.90;;;;;;4954021;29;20196;-87
2022/02/28 10:30:41;;;;;;;24.25;14.40;;;2.50;99.90;;;;;;4947304;29;20223;-87
2022/02/28 10:33:09;;;;;;;22.65;13.75;;;2.60;99.90;;;;;;4945659;29;20235;-87
2022/02/28 10:38:26;;;;;;;22.95;12.95;;;2.70;99.90;;;;;;4944837;29;20709;-87
2022/02/28 10:40:54;;;;;;;21.58;14.23;;;2.70;99.90;;;;;;4943914;29;20251;-86
2022/02/28 10:43:25;;;;;;;19.13;11.82;;;2.70;99.90;;;;;;4943366;29;20222;-87
2022/02/28 10:45:53;;;;;;;21.52;13.82;;;2.80;99.90;;;;;;4943979;29;20214;-87
2022/02/28 10:48:20;;;;;;;25.40;14.43;;;2.80;99.90;;;;;;4942588;29;20222;-87
2022/02/28 10:50:48;;;;;;;22.30;13.30;;;3.00;99.90;;;;;;4948558;29;20240;-87
2022/02/28 10:53:17;;;;;;;22.40;13.48;;;3.10;99.90;;;;;;4958897;23;20303;-84
2022/02/28 10:55:46;;;;;;;26.77;14.93;;;3.10;99.90;;;;;;4954207;29;20231;-85
2022/02/28 10:58:14;;;;;;;23.88;14.07;;;3.20;99.90;;;;;;4952695;29;20673;-83
2022/02/28 11:00:56;;;;;;;22.30;12.05;;;3.40;99.90;;;;;;4959172;28;20203;-84
2022/02/28 11:03:23;;;;;;;28.52;13.82;;;3.60;99.90;;;;;;4959840;28;20293;-83
2022/02/28 11:05:51;;;;;;;22.05;12.20;;;3.40;99.90;;;;;;4959947;28;20199;-84
2022/02/28 11:08:19;;;;;;;20.90;13.55;;;3.60;99.90;;;;;;4960206;28;20191;-84
2022/02/28 11:10:48;;;;;;;18.67;11.95;;;3.60;1.00;;;;;;4959617;28;20222;-84
2022/02/28 11:13:15;;;;;;;23.08;12.50;;;;;;;;;;4958827;28;20239;-84
2022/02/28 11:15:42;;;;;;;23.20;11.85;;;3.80;44.60;;;;;;4957001;28;20214;-83
2022/02/28 11:18:10;;;;;;;15.63;11.00;;;3.70;1.00;;;;;;4960200;28;20223;-84
2022/02/28 11:20:37;;;;;;;18.83;11.27;;;3.60;99.90;;;;;;4956137;29;20207;-84
2022/02/28 11:23:05;;;;;;;22.35;12.55;;;;;;;;;;4952157;29;20235;-85
2022/02/28 11:25:31;;;;;;;21.42;11.10;;;3.70;99.90;;;;;;4950588;29;20205;-85
2022/02/28 11:28:00;;;;;;;21.15;12.32;;;3.80;1.00;;;;;;4951249;29;20727;-85
2022/02/28 11:30:29;;;;;;;26.58;11.43;;;3.80;99.90;;;;;;4949892;29;20213;-85
2022/02/28 11:32:57;;;;;;;24.38;13.57;;;3.50;1.00;;;;;;4949996;29;20258;-85
2022/02/28 11:35:53;;;;;;;19.65;10.85;;;4.20;1.00;;;;;;4949477;29;20222;-85
2022/02/28 11:38:39;;;;;;;15.95;10.88;;;4.20;99.90;;;;;;4899900;29;20207;-85
2022/02/28 11:41:06;;;;;;;20.38;11.20;;;4.30;79.40;;;;;;4953089;29;20211;-85
2022/02/28 11:43:36;;;;;;;20.35;11.50;;;4.70;1.00;;;;;;4952769;29;20289;-85
2022/02/28 11:46:13;;;;;;;20.63;10.18;;;4.50;1.00;;;;;;4954371;29;20217;-85
2022/02/28 11:48:42;;;;;;;18.65;8.50;;;4.40;99.90;;;;;;4954494;29;20327;-85
2022/02/28 11:51:10;;;;;;;14.88;9.38;;;4.50;99.90;;;;;;4956814;29;20270;-85
2022/02/28 11:53:45;;;;;;;17.08;9.52;;;4.50;99.90;;;;;;4950684;29;20286;-85
2022/02/28 11:57:02;;;;;;;13.93;9.35;;;4.50;99.90;;;;;;4949715;29;20238;-85
2022/02/28 11:59:33;;;;;;;17.92;10.25;;;4.60;59.70;;;;;;4949569;29;20193;-86
2022/02/28 12:02:09;;;;;;;16.13;9.88;;;4.90;99.90;;;;;;4951099;29;20219;-84
2022/02/28 12:04:41;;;;;;;12.15;8.15;;;4.60;1.00;;;;;;4952179;29;20231;-85
2022/02/28 12:07:14;;;;;;;14.50;9.70;;;4.60;1.00;;;;;;4952136;29;20552;-85
2022/02/28 12:09:49;;;;;;;12.25;8.63;;;4.70;1.00;;;;;;4953775;29;20204;-85
2022/02/28 12:12:25;;;;;;;14.02;8.50;;;4.70;1.00;;;;;;4952005;29;20206;-85
2022/02/28 12:15:20;;;;;;;12.45;8.02;;;4.80;1.00;;;;;;4954282;29;20723;-85
2022/02/28 12:18:10;;;;;;;17.73;8.45;;;4.90;1.00;;;;;;4954982;29;20214;-86
2022/02/28 12:20:43;;;;;;;10.68;7.95;;;4.90;1.00;;;;;;4953237;29;20266;-85
2022/02/28 12:26:13;;;;;;;11.73;8.57;;;;;;;;;;4949940;29;20213;-84
2022/02/28 12:28:53;;;;;;;14.48;8.02;;;4.90;99.90;;;;;;4951494;29;20235;-85
2022/02/28 12:31:36;;;;;;;10.70;7.38;;;4.90;99.90;;;;;;4951114;29;20195;-85
2022/02/28 12:34:08;;;;;;;8.27;5.60;;;4.70;99.90;;;;;;4949286;29;20234;-84
2022/02/28 12:36:36;;;;;;;11.02;7.18;;;4.80;99.90;;;;;;4949118;29;20247;-85
2022/02/28 12:39:09;;;;;;;10.00;6.93;;;4.90;99.90;;;;;;4949407;29;20215;-83
2022/02/28 12:41:40;;;;;;;10.70;5.97;;;5.00;99.90;;;;;;4950636;29;20243;-85
2022/02/28 12:44:09;;;;;;;11.23;6.30;;;5.00;99.90;;;;;;4959158;28;20242;-84
2022/02/28 12:46:39;;;;;;;10.95;6.70;;;5.40;99.90;;;;;;4962384;28;20175;-83
2022/02/28 12:49:07;;;;;;;10.68;5.07;;;5.20;99.90;;;;;;4962404;28;20187;-84
2022/02/28 12:51:34;;;;;;;8.52;5.20;;;;;;;;;;4962780;28;20207;-83